Time;durP1;ratioP1;P1;durP2;ratioP2;P2;SDS_P1;SDS_P2;PMS_P1;PMS_P2;Temp;Humidity;BMP_temperature;BMP_pressure;BME280_temperature;BME280_humidity;BME280_pressure;Samples;Min_cycle;Max_cycle;Signal;HPM_P1;HPM_P2
2022/03/02 00:01:53;;;;;;;18.00;7.88;;;-3.50;99.90;;;;;;5054004;28;20025;-61
2022/03/02 00:04:18;;;;;;;24.52;8.70;;;-3.50;99.90;;;;;;5054018;28;20025;-61
2022/03/02 00:06:44;;;;;;;18.38;7.53;;;-2.20;99.90;;;;;;5054996;28;20126;-61
2022/03/02 00:09:09;;;;;;;22.27;7.90;;;-3.50;99.90;;;;;;5055410;28;20029;-61
2022/03/02 00:11:35;;;;;;;21.33;7.57;;;-1.40;99.90;;;;;;5055135;28;20053;-61
2022/03/02 00:14:03;;;;;;;14.45;7.00;;;-3.60;99.90;;;;;;5054891;28;20062;-61
2022/03/02 00:16:29;;;;;;;18.60;7.28;;;-1.40;99.90;;;;;;5055276;28;20033;-61
2022/03/02 00:18:56;;;;;;;15.98;6.97;;;-3.60;99.90;;;;;;5054970;28;20043;-61
2022/03/02 00:21:22;;;;;;;17.20;7.85;;;-3.60;99.90;;;;;;5054971;28;20369;-61
2022/03/02 00:23:47;;;;;;;19.35;8.60;;;-2.40;99.90;;;;;;5054850;28;20028;-61
2022/03/02 00:26:13;;;;;;;19.40;7.57;;;-3.60;99.90;;;;;;5053527;28;20029;-61
2022/03/02 00:28:39;;;;;;;23.10;7.97;;;-3.60;99.90;;;;;;5054863;28;20021;-61
2022/03/02 00:31:05;;;;;;;19.77;8.73;;;-3.60;99.90;;;;;;5054688;28;20060;-61
2022/03/02 00:33:30;;;;;;;19.60;8.90;;;-3.70;99.90;;;;;;5054678;28;20061;-61
2022/03/02 00:35:56;;;;;;;14.77;7.63;;;-1.60;99.90;;;;;;5054919;28;20119;-61
2022/03/02 00:38:22;;;;;;;18.85;8.40;;;-3.70;99.90;;;;;;5053336;28;20066;-61
2022/03/02 00:40:47;;;;;;;18.88;8.32;;;-3.70;99.90;;;;;;5055104;28;20033;-61
2022/03/02 00:43:13;;;;;;;20.27;7.60;;;-3.80;99.90;;;;;;5054261;28;20029;-61
2022/03/02 00:45:39;;;;;;;18.45;7.75;;;-3.80;99.90;;;;;;5053161;28;20079;-61
2022/03/02 00:48:06;;;;;;;18.05;7.70;;;-3.90;99.90;;;;;;5054423;28;20025;-61
2022/03/02 00:50:32;;;;;;;19.55;7.50;;;-3.90;99.90;;;;;;5054312;28;20033;-61
2022/03/02 00:52:59;;;;;;;15.25;6.85;;;-3.90;99.90;;;;;;5054209;28;20534;-62
2022/03/02 00:55:25;;;;;;;15.38;6.72;;;-3.90;99.90;;;;;;5053025;28;20029;-61
2022/03/02 00:57:51;;;;;;;16.23;6.93;;;-4.00;99.90;;;;;;5052992;28;20388;-61
2022/03/02 01:00:17;;;;;;;17.17;7.63;;;-2.30;99.90;;;;;;5052929;28;20033;-61
2022/03/02 01:02:43;;;;;;;18.35;7.30;;;-3.90;99.90;;;;;;5053280;28;20033;-61
2022/03/02 01:05:09;;;;;;;18.45;7.85;;;-3.90;99.90;;;;;;5054175;28;20025;-61
2022/03/02 01:07:35;;;;;;;16.50;7.00;;;-3.90;99.90;;;;;;5052340;28;20080;-61
2022/03/02 01:10:03;;;;;;;19.02;7.75;;;-1.50;99.90;;;;;;5052444;28;20065;-61
2022/03/02 01:12:28;;;;;;;14.82;7.05;;;-4.00;99.90;;;;;;5054033;28;20029;-61
2022/03/02 01:14:54;;;;;;;14.10;6.65;;;-4.00;99.90;;;;;;5053996;28;20021;-61
2022/03/02 01:17:21;;;;;;;16.95;7.53;;;-4.00;99.90;;;;;;5052855;28;20033;-61
2022/03/02 01:19:47;;;;;;;20.15;7.85;;;-4.10;99.90;;;;;;5054013;28;20029;-61
2022/03/02 01:22:14;;;;;;;17.70;7.80;;;-2.40;99.90;;;;;;5052688;28;20036;-61
2022/03/02 01:24:40;;;;;;;18.83;6.95;;;-1.80;99.90;;;;;;5053137;28;20567;-61
2022/03/02 01:27:06;;;;;;;17.40;7.78;;;-4.10;99.90;;;;;;5053998;28;20085;-61
2022/03/02 01:29:33;;;;;;;15.43;6.85;;;-4.10;99.90;;;;;;5053724;28;20361;-61
2022/03/02 01:32:00;;;;;;;17.52;8.18;;;-4.10;99.90;;;;;;5053915;28;20029;-61
2022/03/02 01:34:26;;;;;;;20.33;7.35;;;-3.30;99.90;;;;;;5053756;28;20021;-61
2022/03/02 01:36:52;;;;;;;19.92;7.78;;;-4.10;99.90;;;;;;5053877;28;20021;-61
2022/03/02 01:39:18;;;;;;;17.65;5.95;;;-4.10;99.90;;;;;;5053720;28;20051;-61
2022/03/02 01:41:44;;;;;;;19.63;7.78;;;-4.20;99.90;;;;;;5052390;28;20025;-61
2022/03/02 01:44:10;;;;;;;20.38;6.38;;;-4.10;99.90;;;;;;5053755;28;20465;-61
2022/03/02 01:46:54;;;;;;;16.50;7.05;;;-4.20;99.90;;;;;;5052385;28;20032;-61
2022/03/02 01:49:20;;;;;;;23.10;7.40;;;-4.20;99.90;;;;;;5053854;28;20037;-61
2022/03/02 01:52:04;;;;;;;16.58;7.05;;;-4.20;99.90;;;;;;5053643;28;20040;-61
2022/03/02 01:54:30;;;;;;;17.17;6.57;;;-4.20;99.90;;;;;;5052295;28;20492;-61
2022/03/02 01:56:56;;;;;;;18.80;6.38;;;-4.30;99.90;;;;;;5053574;28;20100;-61
2022/03/02 01:59:21;;;;;;;15.52;6.32;;;-4.30;99.90;;;;;;5053510;28;20028;-61
2022/03/02 02:01:48;;;;;;;15.65;7.05;;;-4.30;99.90;;;;;;5053479;28;20096;-61
2022/03/02 02:04:14;;;;;;;17.90;7.00;;;-4.40;99.90;;;;;;5053399;28;20078;-61
2022/03/02 02:06:40;;;;;;;14.30;6.82;;;-2.20;99.90;;;;;;5052524;28;20045;-61
2022/03/02 02:09:07;;;;;;;17.92;6.68;;;-4.40;99.90;;;;;;5053205;28;20359;-61
2022/03/02 02:11:33;;;;;;;21.35;7.22;;;-4.40;99.90;;;;;;5053651;28;20090;-61
2022/03/02 02:13:59;;;;;;;21.02;7.07;;;-4.40;99.90;;;;;;5054248;28;20100;-61
2022/03/02 02:16:25;;;;;;;16.67;6.50;;;-3.50;99.90;;;;;;5056346;28;20032;-61
2022/03/02 02:18:54;;;;;;;20.80;7.38;;;-4.30;99.90;;;;;;5056051;28;20452;-61
2022/03/02 02:21:20;;;;;;;20.02;6.90;;;-4.40;99.90;;;;;;5057271;28;20028;-61
2022/03/02 02:23:46;;;;;;;14.02;6.07;;;-4.40;99.90;;;;;;5057206;28;20029;-61
2022/03/02 02:26:12;;;;;;;16.40;7.07;;;-2.00;99.90;;;;;;5055908;28;20028;-61
2022/03/02 02:28:38;;;;;;;20.10;6.90;;;-4.40;99.90;;;;;;5056803;28;20025;-61
2022/03/02 02:31:04;;;;;;;16.13;7.43;;;-4.40;99.90;;;;;;5057238;28;20029;-61
2022/03/02 02:33:30;;;;;;;15.00;6.82;;;-4.40;99.90;;;;;;5056766;28;20033;-61
2022/03/02 02:35:56;;;;;;;19.48;8.02;;;-4.40;99.90;;;;;;5056948;28;20108;-61
2022/03/02 02:38:22;;;;;;;17.33;7.82;;;-4.40;99.90;;;;;;5057238;28;20108;-62
2022/03/02 02:40:52;;;;;;;14.23;6.75;;;-4.50;99.90;;;;;;5057179;28;20028;-61
2022/03/02 02:43:22;;;;;;;14.02;6.00;;;-4.50;99.90;;;;;;5056241;28;20032;-62
2022/03/02 02:45:48;;;;;;;16.50;6.50;;;-4.50;99.90;;;;;;5057495;28;20440;-61
2022/03/02 02:48:14;;;;;;;23.70;6.88;;;-2.50;99.90;;;;;;5055728;28;20029;-61
2022/03/02 02:50:40;;;;;;;15.48;7.75;;;-4.60;99.90;;;;;;5056468;28;20491;-62
2022/03/02 02:53:08;;;;;;;20.98;7.60;;;-4.60;99.90;;;;;;5056784;28;20529;-61
2022/03/02 02:55:34;;;;;;;;;;;-4.60;99.90;;;;;;5057083;28;20029;-62
2022/03/02 02:58:01;;;;;;;16.25;5.95;;;-3.10;99.90;;;;;;5056889;28;19912;-61
2022/03/02 03:00:30;;;;;;;19.60;6.88;;;-4.70;99.90;;;;;;5055291;28;20112;-61
2022/03/02 03:02:57;;;;;;;22.27;7.68;;;-4.70;99.90;;;;;;5056588;28;20032;-61
2022/03/02 03:05:25;;;;;;;15.77;6.28;;;-4.70;99.90;;;;;;5056481;28;20040;-61
2022/03/02 03:07:53;;;;;;;14.75;6.88;;;-4.70;99.90;;;;;;5056743;28;20060;-61
2022/03/02 03:10:19;;;;;;;23.42;7.68;;;-4.70;99.90;;;;;;5055123;28;20152;-61
2022/03/02 03:12:46;;;;;;;16.65;6.75;;;-4.70;99.90;;;;;;5055343;28;20104;-61
2022/03/02 03:15:15;;;;;;;17.88;6.32;;;-4.80;99.90;;;;;;5056332;28;20361;-61
2022/03/02 03:17:41;;;;;;;17.27;6.55;;;-4.80;99.90;;;;;;5056292;28;20029;-61
2022/03/02 03:20:10;;;;;;;17.02;7.45;;;-4.80;99.90;;;;;;5055992;28;20051;-62
2022/03/02 03:22:36;;;;;;;14.40;6.70;;;-4.80;99.90;;;;;;5054911;28;20376;-61
2022/03/02 03:25:04;;;;;;;17.35;6.85;;;-4.20;99.90;;;;;;5054541;28;20033;-61
2022/03/02 03:27:30;;;;;;;15.23;6.18;;;-4.80;99.90;;;;;;5054539;28;20104;-61
2022/03/02 03:29:56;;;;;;;18.75;6.22;;;-4.90;99.90;;;;;;5055898;28;20029;-61
2022/03/02 03:32:22;;;;;;;12.40;6.40;;;-4.90;99.90;;;;;;5056223;28;20033;-61
2022/03/02 03:34:48;;;;;;;15.45;7.07;;;-4.90;99.90;;;;;;5055888;28;20082;-61
2022/03/02 03:37:13;;;;;;;17.77;6.53;;;-4.90;99.90;;;;;;5055838;28;20472;-61
2022/03/02 03:39:42;;;;;;;12.35;5.70;;;-4.90;99.90;;;;;;5055608;28;20025;-61
2022/03/02 03:42:07;;;;;;;16.05;6.80;;;-4.90;99.90;;;;;;5055727;28;20032;-61
2022/03/02 03:44:33;;;;;;;13.07;5.85;;;-4.90;99.90;;;;;;5054410;28;20041;-61
2022/03/02 03:46:59;;;;;;;19.38;7.93;;;-4.90;99.90;;;;;;5055296;28;20484;-61
2022/03/02 03:49:24;;;;;;;21.50;6.55;;;-4.90;99.90;;;;;;5054466;28;20028;-61
2022/03/02 03:51:50;;;;;;;20.70;7.18;;;-4.90;99.90;;;;;;5055645;28;20029;-61
2022/03/02 03:54:16;;;;;;;15.02;6.72;;;-4.90;99.90;;;;;;5055844;28;20025;-61
2022/03/02 03:56:41;;;;;;;19.05;7.13;;;-4.90;99.90;;;;;;5055757;28;20032;-61
2022/03/02 03:59:08;;;;;;;13.80;6.10;;;-4.90;99.90;;;;;;5054928;28;20033;-61
2022/03/02 04:01:33;;;;;;;19.05;6.70;;;-4.90;99.90;;;;;;5055702;28;20029;-61
2022/03/02 04:03:59;;;;;;;14.43;6.13;;;-5.00;99.90;;;;;;5055650;28;20029;-61
2022/03/02 04:06:25;;;;;;;15.80;6.28;;;-5.00;99.90;;;;;;5055018;28;20052;-61
2022/03/02 04:08:50;;;;;;;13.45;6.35;;;-5.00;99.90;;;;;;5054097;28;20380;-61
2022/03/02 04:11:16;;;;;;;13.90;6.65;;;-5.10;99.90;;;;;;5054874;28;20059;-62
2022/03/02 04:13:42;;;;;;;21.15;7.70;;;-5.10;99.90;;;;;;5054088;28;20534;-61
2022/03/02 04:16:07;;;;;;;13.48;6.70;;;-5.10;99.90;;;;;;5053923;28;20029;-61
2022/03/02 04:18:33;;;;;;;18.55;6.80;;;-5.10;99.90;;;;;;5053815;28;20120;-61
2022/03/02 04:20:59;;;;;;;15.95;6.65;;;-5.10;99.90;;;;;;5053819;28;20024;-61
2022/03/02 04:23:25;;;;;;;13.48;6.68;;;-5.10;99.90;;;;;;5055021;28;20021;-62
2022/03/02 04:25:51;;;;;;;20.60;7.03;;;-5.20;99.90;;;;;;5054939;28;20021;-61
2022/03/02 04:28:17;;;;;;;18.60;6.95;;;-5.20;99.90;;;;;;5053639;28;20048;-61
2022/03/02 04:30:43;;;;;;;17.83;6.20;;;-5.20;99.90;;;;;;5054712;28;20037;-61
2022/03/02 04:33:09;;;;;;;14.15;6.65;;;-5.20;99.90;;;;;;5054490;28;20179;-61
2022/03/02 04:35:35;;;;;;;23.83;7.50;;;-5.10;99.90;;;;;;5054509;28;20095;-61
2022/03/02 04:38:02;;;;;;;21.52;8.05;;;-5.10;99.90;;;;;;5054496;28;20021;-61
2022/03/02 04:40:27;;;;;;;14.38;6.80;;;-5.10;99.90;;;;;;5054371;28;20028;-61
2022/03/02 04:42:56;;;;;;;18.58;5.85;;;-3.30;99.90;;;;;;5054719;28;20083;-61
2022/03/02 04:45:27;;;;;;;19.10;6.57;;;-5.10;99.90;;;;;;5054564;28;20083;-61
2022/03/02 04:47:54;;;;;;;15.40;6.53;;;-5.10;99.90;;;;;;5054630;28;20052;-61
2022/03/02 04:50:20;;;;;;;18.95;7.53;;;-5.10;99.90;;;;;;5054125;28;20107;-61
2022/03/02 04:52:47;;;;;;;18.77;6.53;;;-5.10;99.90;;;;;;5054520;28;20083;-61
2022/03/02 04:55:13;;;;;;;16.38;6.53;;;-5.10;99.90;;;;;;5054407;28;20036;-61
2022/03/02 04:57:38;;;;;;;16.38;7.85;;;-5.10;99.90;;;;;;5053020;28;20029;-61
2022/03/02 05:00:10;;;;;;;14.57;6.85;;;-5.10;99.90;;;;;;5054599;28;20082;-61
2022/03/02 05:02:37;;;;;;;25.95;7.88;;;-5.10;99.90;;;;;;5054301;28;20111;-61
2022/03/02 05:05:04;;;;;;;20.50;7.75;;;-5.10;99.90;;;;;;5054745;28;20025;-61
2022/03/02 05:07:29;;;;;;;22.02;7.40;;;-5.10;99.90;;;;;;5054185;28;20093;-61
2022/03/02 05:09:55;;;;;;;15.35;7.07;;;-2.60;99.90;;;;;;5052713;28;20036;-61
2022/03/02 05:12:21;;;;;;;16.70;6.15;;;-5.00;99.90;;;;;;5054129;28;20025;-61
2022/03/02 05:14:48;;;;;;;15.77;7.03;;;-5.00;99.90;;;;;;5054325;28;20033;-61
2022/03/02 05:17:13;;;;;;;17.75;7.65;;;-5.00;99.90;;;;;;5054031;28;20170;-61
2022/03/02 05:19:39;;;;;;;16.25;7.28;;;-5.00;99.90;;;;;;5052594;28;20112;-61
2022/03/02 05:22:05;;;;;;;25.30;7.65;;;-5.00;99.90;;;;;;5054317;28;20418;-62
2022/03/02 05:24:31;;;;;;;20.55;8.02;;;-5.00;99.90;;;;;;5054149;28;20127;-62
2022/03/02 05:26:57;;;;;;;13.25;6.70;;;-5.00;99.90;;;;;;5052938;28;20033;-62
2022/03/02 05:29:23;;;;;;;18.23;7.03;;;-5.00;99.90;;;;;;5053937;28;20036;-62
2022/03/02 05:31:49;;;;;;;17.50;6.40;;;-2.80;99.90;;;;;;5053534;28;20040;-63
2022/03/02 05:34:15;;;;;;;16.15;6.90;;;-5.10;99.90;;;;;;5054113;28;20036;-62
2022/03/02 05:36:40;;;;;;;14.40;6.75;;;-5.10;99.90;;;;;;5053808;28;20023;-61
2022/03/02 05:39:06;;;;;;;17.13;6.40;;;-5.10;99.90;;;;;;5053873;28;20025;-61
2022/03/02 05:41:33;;;;;;;23.55;8.00;;;-5.20;99.90;;;;;;5053868;28;20033;-61
2022/03/02 05:44:17;;;;;;;19.88;8.07;;;-5.10;99.90;;;;;;5053685;28;20078;-61
2022/03/02 05:46:43;;;;;;;17.42;7.57;;;-5.10;99.90;;;;;;5053863;28;20029;-62
2022/03/02 05:49:09;;;;;;;19.08;7.57;;;-5.20;99.90;;;;;;5054244;28;20074;-62
2022/03/02 05:51:35;;;;;;;21.85;7.93;;;-5.20;99.90;;;;;;5057881;28;20090;-62
2022/03/02 05:54:03;;;;;;;20.27;8.50;;;-5.10;99.90;;;;;;5057537;28;20063;-62
2022/03/02 05:56:30;;;;;;;17.92;7.15;;;-5.10;99.90;;;;;;5056429;28;20115;-62
2022/03/02 05:58:55;;;;;;;18.48;7.88;;;-5.10;99.90;;;;;;5057669;28;20411;-62
2022/03/02 06:01:21;;;;;;;15.23;6.15;;;-5.10;99.90;;;;;;5057867;28;20025;-61
2022/03/02 06:03:49;;;;;;;21.42;8.48;;;-5.10;99.90;;;;;;5057350;28;20384;-61
2022/03/02 06:06:15;;;;;;;25.05;8.75;;;-5.00;99.90;;;;;;5055961;28;20397;-61
2022/03/02 06:08:41;;;;;;;22.42;8.50;;;-5.00;99.90;;;;;;5056418;28;20048;-61
2022/03/02 06:11:08;;;;;;;20.25;8.27;;;-5.00;99.90;;;;;;5057490;28;20043;-62
2022/03/02 06:13:34;;;;;;;17.27;7.63;;;-5.00;99.90;;;;;;5056550;28;20032;-62
2022/03/02 06:16:00;;;;;;;23.40;8.57;;;-5.00;99.90;;;;;;5056304;28;20048;-61
2022/03/02 06:18:26;;;;;;;23.42;7.80;;;-5.00;99.90;;;;;;5056081;28;20464;-62
2022/03/02 06:20:54;;;;;;;18.63;8.00;;;-4.90;99.90;;;;;;5057308;28;20029;-61
2022/03/02 06:23:20;;;;;;;17.38;8.15;;;-4.80;99.90;;;;;;5055936;28;20021;-61
2022/03/02 06:25:46;;;;;;;25.58;7.57;;;-4.80;99.90;;;;;;5055913;28;20021;-62
2022/03/02 06:28:12;;;;;;;21.35;8.63;;;-4.70;99.90;;;;;;5055807;28;20116;-62
2022/03/02 06:30:38;;;;;;;22.60;8.40;;;-4.70;99.90;;;;;;5055667;28;20115;-62
2022/03/02 06:33:04;;;;;;;17.02;8.35;;;-4.70;99.90;;;;;;5055884;28;20128;-62
2022/03/02 06:35:29;;;;;;;21.00;7.57;;;-2.90;99.90;;;;;;5057304;28;20406;-62
2022/03/02 06:37:55;;;;;;;21.65;8.02;;;-4.60;99.90;;;;;;5056933;28;20029;-62
2022/03/02 06:40:21;;;;;;;22.30;8.75;;;-4.60;99.90;;;;;;5056908;28;20079;-61
2022/03/02 06:43:05;;;;;;;23.73;9.70;;;-4.50;99.90;;;;;;5056901;28;20056;-61
2022/03/02 06:45:58;;;;;;;18.67;9.38;;;-4.30;99.90;;;;;;5056932;28;20479;-61
2022/03/02 06:48:34;;;;;;;17.50;8.30;;;-4.00;99.90;;;;;;5055181;28;20033;-61
2022/03/02 06:51:01;;;;;;;22.35;9.05;;;-3.80;99.90;;;;;;5055476;28;20056;-61
2022/03/02 06:53:32;;;;;;;17.00;7.70;;;-3.50;99.90;;;;;;5056646;28;20028;-61
2022/03/02 06:56:06;;;;;;;19.83;9.35;;;-3.40;99.90;;;;;;5055037;28;20032;-61
2022/03/02 06:58:40;;;;;;;20.75;8.38;;;-3.20;99.90;;;;;;5056262;28;20061;-61
2022/03/02 07:01:08;;;;;;;25.35;9.73;;;-3.00;99.90;;;;;;5055144;28;20491;-61
2022/03/02 07:03:38;;;;;;;22.10;8.93;;;-1.00;99.90;;;;;;5056199;28;20029;-61
2022/03/02 07:06:05;;;;;;;20.77;8.68;;;-2.70;99.90;;;;;;5056282;28;20064;-61
2022/03/02 07:08:31;;;;;;;23.92;8.98;;;-2.50;99.90;;;;;;5055046;28;20025;-61
2022/03/02 07:10:59;;;;;;;25.45;9.27;;;-0.30;99.90;;;;;;5056235;28;20025;-61
2022/03/02 07:13:27;;;;;;;16.97;9.10;;;-1.50;99.90;;;;;;5055036;28;20029;-62
2022/03/02 07:15:53;;;;;;;15.77;6.63;;;0.30;99.90;;;;;;5056326;28;20417;-62
2022/03/02 07:18:19;;;;;;;22.83;9.38;;;-1.70;99.90;;;;;;5055881;28;20021;-62
2022/03/02 07:20:46;;;;;;;19.70;8.90;;;-1.50;99.90;;;;;;5056400;28;20029;-62
2022/03/02 07:23:15;;;;;;;22.92;8.02;;;-0.20;99.90;;;;;;5056111;28;20481;-62
2022/03/02 07:25:42;;;;;;;;;;;1.20;99.90;;;;;;5055429;28;20021;-62
2022/03/02 07:28:10;;;;;;;19.75;8.40;;;-0.70;99.90;;;;;;5055972;28;19905;-62
2022/03/02 07:30:36;;;;;;;19.20;7.97;;;1.10;99.90;;;;;;5055908;28;20029;-62
2022/03/02 07:33:04;;;;;;;16.85;7.57;;;-0.10;99.90;;;;;;5055900;28;20056;-62
2022/03/02 07:35:32;;;;;;;18.77;8.38;;;0.30;99.90;;;;;;5055943;28;20021;-62
2022/03/02 07:37:59;;;;;;;19.42;8.13;;;0.60;99.90;;;;;;5054485;28;20033;-62
2022/03/02 07:40:26;;;;;;;22.10;9.73;;;0.90;99.90;;;;;;5054436;28;20489;-62
2022/03/02 07:42:51;;;;;;;20.55;8.73;;;1.20;99.90;;;;;;5054435;28;20054;-62
2022/03/02 07:45:18;;;;;;;17.40;8.52;;;1.50;99.90;;;;;;5054394;28;20094;-62
2022/03/02 07:47:44;;;;;;;35.35;12.50;;;1.90;99.90;;;;;;5055657;28;20021;-62
2022/03/02 07:50:11;;;;;;;20.98;9.05;;;2.20;99.90;;;;;;5055458;28;20044;-62
2022/03/02 07:52:38;;;;;;;19.10;9.02;;;2.50;99.90;;;;;;5054258;28;20487;-62
2022/03/02 07:55:09;;;;;;;24.00;7.85;;;2.90;99.90;;;;;;5055524;28;20032;-62
2022/03/02 07:57:37;;;;;;;14.85;7.55;;;3.30;99.90;;;;;;5055566;28;20017;-63
2022/03/02 08:00:04;;;;;;;23.83;7.57;;;3.70;97.20;;;;;;5055389;28;20036;-62
2022/03/02 08:02:31;;;;;;;16.75;7.72;;;3.90;95.70;;;;;;5055375;28;20107;-62
2022/03/02 08:04:57;;;;;;;16.73;7.55;;;4.10;93.90;;;;;;5055296;28;20402;-63
2022/03/02 08:07:23;;;;;;;16.65;7.50;;;4.30;92.70;;;;;;5055383;28;20053;-62
2022/03/02 08:09:52;;;;;;;17.08;7.20;;;4.20;90.00;;;;;;5053851;28;20043;-62
2022/03/02 08:12:19;;;;;;;;;;;4.10;90.60;;;;;;5053684;28;20032;-62
2022/03/02 08:14:45;;;;;;;15.18;7.15;;;4.20;89.40;;;;;;5055106;28;19904;-62
2022/03/02 08:17:10;;;;;;;14.80;7.18;;;4.40;86.60;;;;;;5053777;28;20475;-62
2022/03/02 08:19:36;;;;;;;12.85;6.03;;;4.60;86.30;;;;;;5055018;28;20082;-62
2022/03/02 08:22:22;;;;;;;15.57;6.95;;;4.80;79.10;;;;;;5055053;28;20497;-62
2022/03/02 08:25:11;;;;;;;16.60;7.47;;;4.80;77.90;;;;;;5055440;28;20025;-62
2022/03/02 08:27:41;;;;;;;;;;;5.20;72.40;;;;;;5054018;28;20460;-62
2022/03/02 08:30:08;;;;;;;16.73;7.18;;;5.30;71.50;;;;;;5054768;28;19916;-63
2022/03/02 08:32:42;;;;;;;14.25;7.15;;;5.60;69.20;;;;;;5053438;28;20496;-62
2022/03/02 08:35:10;;;;;;;21.65;7.10;;;5.60;66.00;;;;;;5053220;28;20125;-62
2022/03/02 08:37:36;;;;;;;12.10;6.72;;;5.60;65.60;;;;;;5054704;28;20056;-62
2022/03/02 08:40:03;;;;;;;13.57;6.88;;;5.80;62.40;;;;;;5054663;28;20029;-62
2022/03/02 08:42:31;;;;;;;17.90;6.47;;;5.90;60.90;;;;;;5053347;28;20476;-62
2022/03/02 08:44:57;;;;;;;12.70;6.05;;;6.10;59.10;;;;;;5054304;28;20040;-62
2022/03/02 08:47:23;;;;;;;13.80;5.80;;;6.20;56.90;;;;;;5054216;28;20033;-62
2022/03/02 08:49:50;;;;;;;16.52;7.00;;;6.30;55.80;;;;;;5054388;28;20116;-62
2022/03/02 08:52:25;;;;;;;18.33;6.63;;;6.40;56.30;;;;;;5053127;28;20030;-62
2022/03/02 08:54:51;;;;;;;13.63;6.38;;;6.50;53.90;;;;;;5053544;28;20416;-62
2022/03/02 08:57:18;;;;;;;15.60;6.88;;;6.60;53.60;;;;;;5054583;28;20029;-62
2022/03/02 08:59:44;;;;;;;13.07;6.20;;;6.80;52.50;;;;;;5054290;28;20091;-62
2022/03/02 09:02:10;;;;;;;11.90;5.50;;;6.90;52.00;;;;;;5054261;28;20104;-62
2022/03/02 09:04:37;;;;;;;14.30;6.40;;;7.00;50.70;;;;;;5053406;28;20107;-62
2022/03/02 09:07:04;;;;;;;10.65;5.18;;;7.10;49.00;;;;;;5052776;28;20568;-62
2022/03/02 09:09:31;;;;;;;15.32;6.10;;;7.20;47.70;;;;;;5053998;28;20082;-62
2022/03/02 09:11:56;;;;;;;15.88;5.63;;;7.30;47.30;;;;;;5054097;28;20037;-62
2022/03/02 09:14:23;;;;;;;9.38;4.82;;;7.50;45.90;;;;;;5052735;28;20029;-62
2022/03/02 09:16:49;;;;;;;13.38;5.15;;;7.50;44.80;;;;;;5053937;28;20105;-62
2022/03/02 09:19:15;;;;;;;15.60;6.85;;;7.60;44.20;;;;;;5053968;28;20053;-62
2022/03/02 09:21:43;;;;;;;12.25;5.63;;;7.40;44.40;;;;;;5053637;28;20033;-62
2022/03/02 09:24:10;;;;;;;12.07;5.30;;;7.60;44.70;;;;;;5052052;28;20355;-62
2022/03/02 09:26:39;;;;;;;12.75;5.75;;;7.80;43.20;;;;;;5053874;28;20021;-62
2022/03/02 09:29:07;;;;;;;11.45;5.50;;;7.90;44.60;;;;;;5053823;28;20021;-62
2022/03/02 09:31:34;;;;;;;14.52;6.18;;;8.30;42.80;;;;;;5053768;28;20036;-62
2022/03/02 09:34:05;;;;;;;13.30;5.32;;;8.20;42.60;;;;;;5052204;28;20042;-62
2022/03/02 09:36:36;;;;;;;15.80;6.53;;;8.50;42.00;;;;;;5054081;28;20034;-62
2022/03/02 09:39:07;;;;;;;14.45;6.43;;;8.80;42.50;;;;;;5052476;28;20047;-62
2022/03/02 09:41:35;;;;;;;13.05;6.43;;;9.00;41.00;;;;;;5053681;28;20028;-62
2022/03/02 09:44:05;;;;;;;15.98;6.53;;;9.10;40.50;;;;;;5053866;28;20036;-62
2022/03/02 09:46:36;;;;;;;11.80;6.07;;;8.70;40.80;;;;;;5053942;28;20033;-61
2022/03/02 09:49:07;;;;;;;14.20;6.22;;;8.90;40.80;;;;;;5052473;28;20057;-62
2022/03/02 09:51:33;;;;;;;14.55;6.30;;;9.40;39.80;;;;;;5052148;28;20079;-62
2022/03/02 09:54:02;;;;;;;13.90;5.88;;;9.70;39.40;;;;;;5053576;28;20399;-62
2022/03/02 09:56:31;;;;;;;9.38;6.18;;;9.80;39.10;;;;;;5052265;28;20107;-62
2022/03/02 09:58:59;;;;;;;13.10;6.43;;;10.30;37.50;;;;;;5052638;28;20119;-62
2022/03/02 10:01:26;;;;;;;11.48;5.82;;;10.10;37.60;;;;;;5053540;28;20377;-62
2022/03/02 10:03:53;;;;;;;11.32;6.20;;;10.10;38.20;;;;;;5053517;28;20025;-56
2022/03/02 10:06:20;;;;;;;11.20;5.28;;;10.60;39.40;;;;;;5053466;28;20052;-56
2022/03/02 10:08:54;;;;;;;12.77;5.97;;;10.40;41.90;;;;;;5053647;28;20017;-56
2022/03/02 10:11:25;;;;;;;10.88;6.20;;;11.10;37.50;;;;;;5053322;28;20033;-56
2022/03/02 10:13:55;;;;;;;10.75;5.80;;;11.30;35.60;;;;;;5053412;28;20040;-62
2022/03/02 10:16:24;;;;;;;13.02;6.35;;;11.20;35.10;;;;;;5053486;28;20034;-62
2022/03/02 10:18:59;;;;;;;12.65;7.03;;;11.60;34.70;;;;;;5053449;28;20029;-62
2022/03/02 10:21:40;;;;;;;9.35;6.43;;;12.40;34.00;;;;;;5052083;28;20089;-62
2022/03/02 10:24:13;;;;;;;14.18;6.80;;;13.10;32.80;;;;;;5053571;28;20025;-63
2022/03/02 10:26:51;;;;;;;14.38;6.95;;;13.30;32.50;;;;;;5053649;28;20032;-63
2022/03/02 10:29:48;;;;;;;11.48;6.65;;;13.70;31.80;;;;;;5053367;28;20025;-62
2022/03/02 10:32:16;;;;;;;13.80;6.55;;;13.40;31.90;;;;;;5051591;28;20037;-62
2022/03/02 10:34:54;;;;;;;11.25;7.03;;;13.70;31.60;;;;;;5053554;28;20033;-62
2022/03/02 10:37:20;;;;;;;12.20;6.85;;;13.30;31.30;;;;;;5059346;28;20412;-69
2022/03/02 10:39:57;;;;;;;10.98;6.82;;;13.10;32.00;;;;;;5059656;28;20031;-62
2022/03/02 10:42:28;;;;;;;13.02;6.30;;;13.10;32.00;;;;;;5058548;28;20028;-67
2022/03/02 10:45:04;;;;;;;13.07;7.18;;;13.00;31.60;;;;;;5057675;28;20048;-63
2022/03/02 10:47:31;;;;;;;15.52;6.57;;;12.80;32.70;;;;;;5057192;28;20020;-63
2022/03/02 10:50:03;;;;;;;15.25;7.65;;;12.40;33.30;;;;;;5056829;28;20029;-63
2022/03/02 10:52:31;;;;;;;12.07;6.80;;;11.90;33.80;;;;;;5057185;28;20086;-63
2022/03/02 10:55:03;;;;;;;12.10;6.60;;;12.10;34.10;;;;;;5056752;28;20033;-64
2022/03/02 10:57:32;;;;;;;17.35;7.25;;;12.90;33.30;;;;;;5057674;28;20365;-67
2022/03/02 11:00:06;;;;;;;11.15;6.32;;;13.70;32.60;;;;;;5057947;28;20032;-63
2022/03/02 11:02:34;;;;;;;13.30;7.00;;;14.20;31.20;;;;;;5057738;28;20029;-63
2022/03/02 11:05:02;;;;;;;11.25;6.30;;;14.30;30.80;;;;;;5057523;28;20106;-62
2022/03/02 11:07:47;;;;;;;14.05;7.60;;;13.80;31.10;;;;;;5056865;28;20056;-62
2022/03/02 11:10:18;;;;;;;16.80;6.97;;;14.10;30.20;;;;;;5056357;28;20086;-62
2022/03/02 11:12:46;;;;;;;12.90;6.40;;;13.20;30.80;;;;;;5056839;28;20490;-62
2022/03/02 11:15:13;;;;;;;9.77;6.30;;;12.40;32.60;;;;;;5056712;28;20056;-62
2022/03/02 11:17:58;;;;;;;12.30;6.93;;;13.20;31.90;;;;;;5055053;28;20068;-63
2022/03/02 11:20:26;;;;;;;14.48;6.95;;;13.50;31.10;;;;;;5056606;28;20036;-62
2022/03/02 11:22:57;;;;;;;10.13;6.82;;;13.20;31.10;;;;;;5056308;28;20025;-67
2022/03/02 11:25:48;;;;;;;13.60;6.90;;;13.40;31.30;;;;;;5057039;28;20032;-62
2022/03/02 11:28:18;;;;;;;11.70;6.80;;;13.60;31.00;;;;;;5057263;28;20055;-63
2022/03/02 11:30:51;;;;;;;11.80;7.47;;;13.90;30.60;;;;;;5059292;28;20036;-63
2022/03/02 11:33:25;;;;;;;12.10;6.50;;;14.10;30.00;;;;;;5057736;28;20029;-64
2022/03/02 11:35:52;;;;;;;10.80;6.43;;;13.40;30.00;;;;;;5056523;28;20025;-63
2022/03/02 11:38:22;;;;;;;16.33;7.47;;;13.10;30.90;;;;;;5056549;28;20021;-63
2022/03/02 11:40:49;;;;;;;13.50;6.82;;;12.70;31.60;;;;;;5056664;28;20451;-62
2022/03/02 11:43:22;;;;;;;12.40;7.30;;;12.80;31.60;;;;;;5057245;28;20075;-63
2022/03/02 11:45:51;;;;;;;11.48;6.82;;;12.10;32.60;;;;;;5056585;28;20060;-62
2022/03/02 11:48:20;;;;;;;12.85;7.13;;;12.70;32.30;;;;;;5054746;28;20107;-62
2022/03/02 11:51:01;;;;;;;;;;;12.50;31.80;;;;;;5054656;28;20063;-62
2022/03/02 11:53:36;;;;;;;13.95;6.55;;;12.60;32.00;;;;;;5055636;28;19908;-62
2022/03/02 11:56:03;;;;;;;15.13;7.32;;;12.70;31.60;;;;;;5054413;28;20438;-62
2022/03/02 11:58:56;;;;;;;12.23;6.88;;;12.80;31.70;;;;;;5054211;28;20453;-62
2022/03/02 12:01:23;;;;;;;14.95;7.95;;;13.60;31.50;;;;;;5054185;28;20539;-62
2022/03/02 12:03:56;;;;;;;15.55;7.32;;;14.40;30.20;;;;;;5055366;28;20057;-62
2022/03/02 12:06:21;;;;;;;10.82;6.45;;;14.30;30.00;;;;;;5053830;28;20477;-62
2022/03/02 12:08:52;;;;;;;12.35;6.80;;;14.20;29.30;;;;;;5055428;28;20070;-62
2022/03/02 12:11:23;;;;;;;11.35;6.93;;;14.00;29.80;;;;;;5055069;28;20025;-62
2022/03/02 12:14:07;;;;;;;15.57;7.32;;;14.80;30.00;;;;;;5055456;28;20033;-62
2022/03/02 12:16:38;;;;;;;16.45;7.80;;;14.70;29.90;;;;;;5055326;28;20203;-62
2022/03/02 12:19:04;;;;;;;14.82;7.68;;;14.20;30.30;;;;;;5054026;28;20512;-62
2022/03/02 12:21:30;;;;;;;13.27;7.18;;;14.20;30.50;;;;;;5055356;28;20063;-62
2022/03/02 12:23:57;;;;;;;12.73;7.10;;;14.70;29.90;;;;;;5055200;28;20025;-62
2022/03/02 12:26:22;;;;;;;10.05;6.80;;;14.90;29.40;;;;;;5054905;28;20024;-62
2022/03/02 12:28:57;;;;;;;9.88;5.95;;;14.00;28.90;;;;;;5054930;28;20023;-62
2022/03/02 12:31:31;;;;;;;11.55;6.38;;;13.30;28.70;;;;;;5054806;28;20056;-62
2022/03/02 12:34:15;;;;;;;12.05;6.78;;;14.20;29.00;;;;;;5054803;28;20082;-62
2022/03/02 12:36:43;;;;;;;9.68;6.25;;;14.60;27.90;;;;;;5055071;28;20025;-62
2022/03/02 12:39:09;;;;;;;14.40;7.03;;;13.60;28.60;;;;;;5054343;28;20387;-61
2022/03/02 12:41:36;;;;;;;9.73;6.40;;;13.40;28.80;;;;;;5054481;28;20025;-62
2022/03/02 12:44:03;;;;;;;12.70;6.65;;;13.40;28.70;;;;;;5054295;28;20025;-62
2022/03/02 12:46:29;;;;;;;10.23;6.05;;;13.40;28.60;;;;;;5054879;28;20028;-62